Time;durP1;ratioP1;P1;durP2;ratioP2;P2;SDS_P1;SDS_P2;PMS_P1;PMS_P2;Temp;Humidity;BMP_temperature;BMP_pressure;BME280_temperature;BME280_humidity;BME280_pressure;Samples;Min_cycle;Max_cycle;Signal;HPM_P1;HPM_P2
2021/01/01 13:22:12;;;;;;;19.27;13.82;;;7.80;83.30;;;;;;5123425;27;20137;-80
2021/01/01 13:24:38;;;;;;;18.08;13.27;;;7.30;86.10;;;;;;5090742;28;20035;-81
2021/01/01 13:27:04;;;;;;;19.48;13.05;;;6.80;87.30;;;;;;5073239;28;20070;-80
2021/01/01 13:29:30;;;;;;;17.10;12.00;;;6.50;88.30;;;;;;5080363;28;20031;-80
2021/01/01 13:31:55;;;;;;;19.05;13.05;;;6.30;89.60;;;;;;5077517;28;20032;-81
2021/01/01 13:34:21;;;;;;;16.88;12.38;;;6.10;90.10;;;;;;5106826;28;20070;-81
2021/01/01 13:36:54;;;;;;;19.55;12.45;;;6.00;90.30;;;;;;5102804;28;20070;-80
2021/01/01 13:39:20;;;;;;;19.85;14.90;;;5.90;90.60;;;;;;5063250;28;20067;-80
2021/01/01 13:41:45;;;;;;;19.60;13.52;;;5.80;90.60;;;;;;5067552;28;20087;-80
2021/01/01 13:44:11;;;;;;;19.23;13.00;;;5.80;90.90;;;;;;5057227;28;20075;-81
2021/01/01 13:46:37;;;;;;;19.88;13.25;;;5.70;91.10;;;;;;5061703;28;20471;-80
2021/01/01 13:49:04;;;;;;;19.85;13.30;;;5.70;91.20;;;;;;5091254;28;20041;-80
2021/01/01 13:51:31;;;;;;;20.67;13.90;;;5.70;91.30;;;;;;5037001;28;20099;-80
2021/01/01 13:53:58;;;;;;;18.40;13.38;;;5.80;91.40;;;;;;5055374;28;20062;-81
2021/01/01 13:56:24;;;;;;;20.92;12.88;;;5.80;91.50;;;;;;5040464;28;20048;-81
2021/01/01 13:58:50;;;;;;;21.25;13.15;;;5.80;91.60;;;;;;5051856;28;20055;-81
2021/01/01 14:01:20;;;;;;;21.35;13.32;;;5.80;91.70;;;;;;5057667;28;20113;-81
2021/01/01 14:03:45;;;;;;;17.13;12.35;;;5.80;91.70;;;;;;5032906;28;20052;-81
2021/01/01 14:06:12;;;;;;;16.10;10.45;;;5.80;91.70;;;;;;5058757;28;20040;-81
2021/01/01 14:08:38;;;;;;;15.68;9.77;;;5.70;91.70;;;;;;5045277;28;20040;-81
2021/01/01 14:11:08;;;;;;;12.70;8.65;;;5.60;91.70;;;;;;5057594;28;20040;-80
2021/01/01 14:13:34;;;;;;;19.50;9.93;;;5.60;91.70;;;;;;5080716;28;20488;-81
2021/01/01 14:16:00;;;;;;;15.23;8.27;;;5.50;91.60;;;;;;5049852;28;20040;-81
2021/01/01 14:18:28;;;;;;;12.35;7.97;;;5.50;91.60;;;;;;5038713;28;20052;-82
2021/01/01 14:20:54;;;;;;;10.90;7.38;;;5.50;91.70;;;;;;5071465;28;20056;-81
2021/01/01 14:23:20;;;;;;;12.40;7.75;;;5.40;91.70;;;;;;5051815;28;20060;-81
2021/01/01 14:25:47;;;;;;;13.07;7.20;;;5.30;91.60;;;;;;5060958;28;20078;-81
2021/01/01 14:28:13;;;;;;;8.65;5.60;;;5.20;91.70;;;;;;5055160;28;20063;-81
2021/01/01 14:30:39;;;;;;;13.13;6.65;;;5.20;91.70;;;;;;5093261;28;20480;-81
2021/01/01 14:33:06;;;;;;;11.90;6.78;;;5.10;91.70;;;;;;5041932;28;20032;-82
2021/01/01 14:35:36;;;;;;;10.77;6.18;;;5.00;91.70;;;;;;5028832;28;20465;-81
2021/01/01 14:38:03;;;;;;;11.63;6.45;;;4.90;91.70;;;;;;5045152;28;20043;-81
2021/01/01 14:40:28;;;;;;;10.63;5.90;;;4.80;91.70;;;;;;5075050;28;20063;-81
2021/01/01 14:42:54;;;;;;;14.27;8.00;;;4.70;91.70;;;;;;5076138;28;20044;-82
2021/01/01 14:45:20;;;;;;;14.82;8.13;;;4.70;91.70;;;;;;5038888;28;20053;-80
2021/01/01 14:47:46;;;;;;;17.15;8.73;;;4.60;91.80;;;;;;5062106;28;20062;-81
2021/01/01 14:50:16;;;;;;;14.43;9.05;;;4.50;91.70;;;;;;5033700;28;20062;-81
2021/01/01 14:52:41;;;;;;;14.43;9.35;;;4.50;91.90;;;;;;5043491;28;20056;-81
2021/01/01 14:55:08;;;;;;;14.00;8.75;;;4.40;91.80;;;;;;5051166;28;20038;-80
2021/01/01 14:57:38;;;;;;;19.67;9.85;;;4.30;91.80;;;;;;5048496;28;20037;-82
2021/01/01 15:00:11;;;;;;;14.75;8.98;;;4.30;92.00;;;;;;5036159;28;20053;-82
2021/01/01 15:02:41;;;;;;;14.20;8.88;;;4.20;92.10;;;;;;5074674;28;20059;-83
2021/01/01 15:05:07;;;;;;;18.83;9.50;;;4.20;92.00;;;;;;5053651;28;20047;-82
2021/01/01 15:07:33;;;;;;;13.93;9.02;;;4.10;92.10;;;;;;5064569;28;20037;-82
2021/01/01 15:09:58;;;;;;;17.23;9.82;;;4.10;92.10;;;;;;5050398;28;20114;-81
2021/01/01 15:12:24;;;;;;;19.52;10.77;;;4.00;92.00;;;;;;5057035;28;20365;-82
2021/01/01 15:14:50;;;;;;;18.98;10.18;;;3.90;92.10;;;;;;5059270;28;20067;-82
2021/01/01 15:17:16;;;;;;;20.60;11.00;;;3.90;92.20;;;;;;5064318;28;20258;-82
2021/01/01 15:19:42;;;;;;;20.67;11.27;;;3.80;92.10;;;;;;5044845;28;20040;-81
2021/01/01 15:22:16;;;;;;;31.83;15.35;;;3.80;92.10;;;;;;5059039;28;20061;-83
2021/01/01 15:24:42;;;;;;;38.88;17.67;;;3.70;92.20;;;;;;5030705;28;20078;-82
2021/01/01 15:27:09;;;;;;;34.55;17.33;;;3.70;92.30;;;;;;5025500;28;20103;-81
2021/01/01 15:29:35;;;;;;;43.10;19.98;;;3.60;92.30;;;;;;5042935;28;20060;-81
2021/01/01 15:32:01;;;;;;;39.28;20.52;;;3.60;92.30;;;;;;5033868;28;20041;-82
2021/01/01 15:34:27;;;;;;;43.78;21.30;;;3.50;92.40;;;;;;5078618;28;20032;-83
2021/01/01 15:36:53;;;;;;;44.58;23.15;;;3.40;92.40;;;;;;5022532;28;20105;-83
2021/01/01 15:39:18;;;;;;;49.55;24.33;;;3.40;92.50;;;;;;5033039;28;20060;-83
2021/01/01 15:41:48;;;;;;;50.15;25.20;;;3.30;92.60;;;;;;5033329;28;20443;-84
2021/01/01 15:44:14;;;;;;;44.92;23.75;;;3.40;92.70;;;;;;5033145;28;20036;-81
2021/01/01 15:46:42;;;;;;;61.15;30.40;;;3.30;92.70;;;;;;5010360;28;20125;-83
2021/01/01 15:49:08;;;;;;;68.50;34.53;;;3.40;93.10;;;;;;5040913;28;20089;-83
2021/01/01 15:51:34;;;;;;;64.43;34.92;;;3.40;93.00;;;;;;5026095;28;20418;-82
2021/01/01 15:54:00;;;;;;;66.68;35.75;;;3.30;92.90;;;;;;5010752;28;20204;-82
2021/01/01 15:56:26;;;;;;;70.53;36.25;;;3.40;93.10;;;;;;5020673;28;20048;-82
2021/01/01 15:58:53;;;;;;;87.03;43.10;;;3.40;93.30;;;;;;5061466;28;20029;-83
2021/01/01 16:01:19;;;;;;;82.55;44.15;;;3.40;93.30;;;;;;5062944;28;20112;-84
2021/01/01 16:03:50;;;;;;;86.85;44.55;;;3.40;93.20;;;;;;5028755;28;20465;-83
2021/01/01 16:06:16;;;;;;;95.40;47.88;;;3.40;93.20;;;;;;5041343;28;20051;-82
2021/01/01 16:08:46;;;;;;;96.75;47.50;;;3.40;93.20;;;;;;5026056;28;20039;-82
2021/01/01 16:11:12;;;;;;;110.75;50.67;;;3.40;93.20;;;;;;5045258;28;20033;-83
2021/01/01 16:13:38;;;;;;;77.28;42.03;;;3.40;93.30;;;;;;5037479;28;20040;-83
2021/01/01 16:16:04;;;;;;;123.60;51.60;;;3.40;93.40;;;;;;5064496;28;20079;-83
2021/01/01 16:18:31;;;;;;;88.13;49.30;;;3.40;93.40;;;;;;5054377;28;20033;-82
2021/01/01 16:20:57;;;;;;;93.47;50.85;;;3.50;93.70;;;;;;5053562;28;20104;-82
2021/01/01 16:23:23;;;;;;;99.65;51.72;;;3.50;94.00;;;;;;5037320;28;20029;-82
2021/01/01 16:25:50;;;;;;;118.22;52.58;;;3.60;93.80;;;;;;5046137;28;20096;-83
2021/01/01 16:28:17;;;;;;;105.28;50.20;;;3.60;93.70;;;;;;5026700;28;20141;-82
2021/01/01 16:30:44;;;;;;;96.03;49.75;;;3.60;93.80;;;;;;5030861;28;20045;-82
2021/01/01 16:33:11;;;;;;;88.65;47.25;;;3.60;93.80;;;;;;5037593;28;20048;-82
2021/01/01 16:35:37;;;;;;;107.65;51.10;;;3.70;93.90;;;;;;5049634;28;20109;-81
2021/01/01 16:38:06;;;;;;;98.45;47.88;;;3.70;93.80;;;;;;5066994;28;20186;-82
2021/01/01 16:40:32;;;;;;;100.97;49.75;;;3.70;93.90;;;;;;5027907;28;20055;-83
2021/01/01 16:43:00;;;;;;;80.75;43.20;;;3.70;93.80;;;;;;5041201;28;20053;-81
2021/01/01 16:45:26;;;;;;;79.30;44.00;;;3.70;93.80;;;;;;5074304;28;20076;-84
2021/01/01 16:47:53;;;;;;;83.25;44.30;;;3.60;93.70;;;;;;5045839;28;20048;-82
2021/01/01 16:50:22;;;;;;;78.82;42.58;;;3.60;93.60;;;;;;5058098;28;20048;-83
2021/01/01 16:52:49;;;;;;;71.63;40.55;;;3.50;93.60;;;;;;5043360;28;20041;-83
2021/01/01 16:55:19;;;;;;;76.53;41.88;;;3.50;93.60;;;;;;5038873;28;20044;-81
2021/01/01 16:57:46;;;;;;;89.63;43.53;;;3.50;93.50;;;;;;5055939;28;20048;-82
2021/01/01 17:00:12;;;;;;;74.53;42.60;;;3.40;93.30;;;;;;5028970;28;20138;-82
2021/01/01 17:02:38;;;;;;;69.75;40.60;;;3.40;93.30;;;;;;5042615;28;20649;-83
2021/01/01 17:05:05;;;;;;;84.80;44.78;;;3.30;93.20;;;;;;5005401;28;20059;-82
2021/01/01 17:07:31;;;;;;;84.32;43.17;;;3.30;93.30;;;;;;5058335;28;20080;-82
2021/01/01 17:09:57;;;;;;;64.30;37.00;;;3.30;93.70;;;;;;5047645;28;20044;-81
2021/01/01 17:12:23;;;;;;;76.78;41.60;;;3.20;93.30;;;;;;5025502;28;20052;-82
2021/01/01 17:14:50;;;;;;;88.45;42.20;;;3.20;93.30;;;;;;5020457;28;20045;-82
2021/01/01 17:17:15;;;;;;;107.72;45.60;;;3.20;93.50;;;;;;5043133;28;20044;-82
2021/01/01 17:19:48;;;;;;;90.72;46.92;;;3.20;93.50;;;;;;5040592;28;20053;-81
2021/01/01 17:22:14;;;;;;;74.75;41.95;;;3.20;93.60;;;;;;5072196;28;20052;-82
2021/01/01 17:24:43;;;;;;;83.75;43.63;;;3.20;93.90;;;;;;5049781;28;20503;-82
2021/01/01 17:27:10;;;;;;;81.63;42.85;;;3.30;93.90;;;;;;5028554;28;20405;-82
2021/01/01 17:29:37;;;;;;;93.85;47.10;;;3.30;93.90;;;;;;5026295;28;20036;-82
2021/01/01 17:32:03;;;;;;;94.75;47.40;;;3.40;94.00;;;;;;5031330;28;20488;-82
2021/01/01 17:34:29;;;;;;;99.57;46.33;;;3.40;94.00;;;;;;5058257;28;20041;-82
2021/01/01 17:36:54;;;;;;;74.13;43.97;;;3.40;94.10;;;;;;5036745;28;20541;-82
2021/01/01 17:39:20;;;;;;;84.90;44.75;;;3.40;94.20;;;;;;5044729;28;20041;-81
2021/01/01 17:41:47;;;;;;;83.10;43.55;;;3.50;94.20;;;;;;5025142;28;20052;-81
2021/01/01 17:44:13;;;;;;;75.07;41.72;;;3.50;94.30;;;;;;5034510;28;20076;-81
2021/01/01 17:46:39;;;;;;;71.97;38.22;;;3.60;94.50;;;;;;5029153;28;20062;-82
2021/01/01 17:49:05;;;;;;;65.00;38.80;;;3.60;94.50;;;;;;5021283;28;20044;-82
2021/01/01 17:51:31;;;;;;;79.45;44.03;;;3.60;94.40;;;;;;5026896;28;20045;-81
2021/01/01 17:53:59;;;;;;;63.03;37.85;;;3.70;94.30;;;;;;5055591;28;20126;-81
2021/01/01 17:56:24;;;;;;;64.47;41.42;;;3.70;94.40;;;;;;5052620;28;20159;-82
2021/01/01 17:58:54;;;;;;;73.85;42.75;;;3.70;94.30;;;;;;5003176;28;20064;-82
2021/01/01 18:01:20;;;;;;;79.28;45.67;;;3.70;94.40;;;;;;5026256;28;20044;-81
2021/01/01 18:03:48;;;;;;;79.53;44.25;;;3.70;94.30;;;;;;5038675;28;20067;-82
2021/01/01 18:06:14;;;;;;;68.53;42.85;;;3.70;94.20;;;;;;5037550;28;20029;-82
2021/01/01 18:08:40;;;;;;;61.95;38.83;;;3.70;94.30;;;;;;5055896;28;20470;-82
2021/01/01 18:11:07;;;;;;;69.10;43.22;;;3.70;94.40;;;;;;5063876;28;20044;-83
2021/01/01 18:13:33;;;;;;;75.25;44.60;;;3.70;94.20;;;;;;5054773;28;20048;-81
2021/01/01 18:15:59;;;;;;;66.40;41.95;;;3.70;94.30;;;;;;5079730;28;20211;-82
2021/01/01 18:18:25;;;;;;;58.20;36.63;;;3.70;94.30;;;;;;5021216;28;20041;-81
2021/01/01 18:20:51;;;;;;;60.22;39.13;;;3.60;94.00;;;;;;5045870;28;20055;-82
2021/01/01 18:23:23;;;;;;;68.07;40.05;;;3.60;94.00;;;;;;5019885;28;20481;-82
2021/01/01 18:25:49;;;;;;;54.35;38.40;;;3.50;93.90;;;;;;5077659;28;20028;-82
2021/01/01 18:28:15;;;;;;;55.78;38.28;;;3.50;94.10;;;;;;5042250;28;20036;-82
2021/01/01 18:30:42;;;;;;;55.72;36.80;;;3.50;94.50;;;;;;5059469;28;20063;-84
2021/01/01 18:33:08;;;;;;;60.60;38.53;;;3.50;94.20;;;;;;5028542;28;20095;-83
2021/01/01 18:35:34;;;;;;;61.03;38.70;;;3.40;94.20;;;;;;5045080;28;20044;-82
2021/01/01 18:38:02;;;;;;;61.60;39.35;;;3.50;94.10;;;;;;5035194;28;20045;-84
2021/01/01 18:40:29;;;;;;;66.75;40.20;;;3.50;94.10;;;;;;5031642;28;20504;-82
2021/01/01 18:42:57;;;;;;;61.83;39.38;;;3.50;94.20;;;;;;5039711;28;20101;-83
2021/01/01 18:45:23;;;;;;;65.47;41.00;;;3.50;94.30;;;;;;5052952;28;20053;-83
2021/01/01 18:47:50;;;;;;;66.40;42.40;;;3.60;94.40;;;;;;5036396;28;20036;-83
2021/01/01 18:50:19;;;;;;;62.45;41.92;;;3.60;94.60;;;;;;5058980;28;20049;-83
2021/01/01 18:52:45;;;;;;;66.22;42.70;;;3.60;94.40;;;;;;5038385;28;20045;-83
2021/01/01 18:55:17;;;;;;;61.88;41.88;;;3.60;94.50;;;;;;5022101;28;20061;-82
2021/01/01 18:57:51;;;;;;;62.25;41.28;;;3.70;94.60;;;;;;5046958;28;20064;-83
2021/01/01 19:00:19;;;;;;;60.10;39.67;;;3.70;94.50;;;;;;5019135;28;20045;-82
2021/01/01 19:03:07;;;;;;;54.53;37.28;;;3.70;94.60;;;;;;5042728;28;20064;-83
2021/01/01 19:05:40;;;;;;;62.60;39.97;;;3.70;94.50;;;;;;5068525;28;20055;-83
2021/01/01 19:08:07;;;;;;;53.20;36.28;;;3.70;94.50;;;;;;5057796;28;20041;-82
2021/01/01 19:10:34;;;;;;;51.35;36.45;;;3.80;94.50;;;;;;5021183;28;20090;-83
2021/01/01 19:13:09;;;;;;;56.08;35.85;;;3.80;94.50;;;;;;5039890;28;20056;-83
2021/01/01 19:15:44;;;;;;;45.22;33.55;;;3.80;94.50;;;;;;5051232;28;20044;-83
2021/01/01 19:18:34;;;;;;;44.85;30.85;;;3.80;94.50;;;;;;5009412;28;20051;-82
2021/01/01 19:20:59;;;;;;;53.20;34.30;;;3.80;94.70;;;;;;5040536;28;20081;-83
2021/01/01 19:23:35;;;;;;;56.65;37.28;;;3.90;94.50;;;;;;5033951;28;20057;-82
2021/01/01 19:26:10;;;;;;;49.80;33.72;;;3.90;94.50;;;;;;5029398;28;20682;-83
2021/01/01 19:28:37;;;;;;;57.25;34.55;;;3.90;94.50;;;;;;5051106;28;20118;-82
2021/01/01 19:31:11;;;;;;;48.08;32.55;;;3.80;94.30;;;;;;5015100;28;20143;-83
2021/01/01 19:34:03;;;;;;;46.45;31.48;;;3.80;94.20;;;;;;5040288;28;20047;-83
2021/01/01 19:37:21;;;;;;;48.63;33.28;;;3.80;94.30;;;;;;5048342;28;20040;-82
2021/01/01 19:40:30;;;;;;;48.83;32.55;;;3.80;94.30;;;;;;5058841;28;20119;-82
2021/01/01 19:43:07;;;;;;;63.65;35.53;;;3.80;94.50;;;;;;5045024;28;20068;-83
2021/01/01 19:46:16;;;;;;;53.85;34.25;;;3.80;94.20;;;;;;5024497;28;20049;-82
2021/01/01 19:49:19;;;;;;;61.08;37.60;;;3.80;94.40;;;;;;4964581;28;20235;-83
2021/01/01 19:52:00;;;;;;;64.68;36.50;;;3.70;94.40;;;;;;4979190;28;20082;-82
2021/01/01 19:54:49;;;;;;;57.47;38.47;;;3.70;94.50;;;;;;4984866;28;20646;-82
2021/01/01 19:57:30;;;;;;;63.63;39.60;;;3.70;94.40;;;;;;4990503;28;20054;-81
2021/01/01 20:00:08;;;;;;;61.10;38.53;;;3.70;94.40;;;;;;4979823;28;20061;-82
2021/01/01 20:02:55;;;;;;;63.55;39.80;;;3.70;94.50;;;;;;4972432;28;20074;-83
2021/01/01 20:05:23;;;;;;;85.80;45.38;;;3.70;94.40;;;;;;4959614;28;20058;-82
2021/01/01 20:07:54;;;;;;;63.25;39.17;;;3.70;94.30;;;;;;4976400;28;20057;-82
2021/01/01 20:10:22;;;;;;;76.55;42.70;;;3.70;94.60;;;;;;4964233;28;20073;-83
2021/01/01 20:12:57;;;;;;;70.80;41.05;;;3.70;94.50;;;;;;4944485;28;20146;-83
2021/01/01 20:15:23;;;;;;;;;;;3.80;94.40;;;;;;4982659;28;20068;-83
2021/01/01 20:17:54;;;;;;;57.92;37.13;;;3.70;94.70;;;;;;4976464;28;19933;-83
2021/01/01 20:20:20;;;;;;;66.40;39.95;;;3.70;94.70;;;;;;4963691;28;20062;-82
2021/01/01 20:22:49;;;;;;;64.22;38.83;;;3.70;94.60;;;;;;4975783;28;20053;-84
2021/01/01 20:25:18;;;;;;;66.90;39.28;;;3.70;94.50;;;;;;4982813;28;20060;-83
2021/01/01 20:27:57;;;;;;;56.55;38.33;;;3.80;94.50;;;;;;5017826;28;20049;-84
2021/01/01 20:30:28;;;;;;;73.00;41.00;;;3.80;94.60;;;;;;5053769;28;20097;-83
2021/01/01 20:33:06;;;;;;;58.80;38.40;;;3.80;94.80;;;;;;5030271;28;20045;-83
2021/01/01 20:35:43;;;;;;;60.55;39.13;;;3.80;94.60;;;;;;5038743;28;20033;-82
2021/01/01 20:38:30;;;;;;;65.80;39.65;;;3.80;94.60;;;;;;5050167;28;20475;-83
2021/01/01 20:41:35;;;;;;;60.33;37.83;;;3.80;94.60;;;;;;5057752;28;20037;-84
2021/01/01 20:44:19;;;;;;;71.63;41.63;;;3.70;94.70;;;;;;5043657;28;20338;-85
2021/01/01 20:57:56;;;;;;;63.70;37.63;;;3.90;94.50;;;;;;4994328;28;87645;-84
2021/01/01 21:00:22;;;;;;;67.47;38.00;;;3.90;94.50;;;;;;5017470;28;132151;-84
2021/01/01 21:03:03;;;;;;;61.50;39.78;;;3.90;94.50;;;;;;4999333;28;372670;-84
2021/01/01 21:06:09;;;;;;;51.92;35.30;;;3.80;94.50;;;;;;5031442;28;20045;-83
2021/01/01 21:09:11;;;;;;;56.63;35.67;;;3.90;94.60;;;;;;5003306;28;20456;-83
2021/01/01 21:12:14;;;;;;;48.03;34.65;;;3.90;94.60;;;;;;4976198;28;20100;-83
2021/01/01 21:15:06;;;;;;;50.03;35.13;;;3.90;94.60;;;;;;4989780;28;20530;-83
2021/01/01 21:17:54;;;;;;;54.42;35.65;;;3.90;94.60;;;;;;4982931;28;20046;-84
2021/01/01 21:20:24;;;;;;;52.75;34.58;;;3.90;94.50;;;;;;4992436;28;20122;-83
2021/01/01 21:23:11;;;;;;;52.53;33.90;;;3.90;94.60;;;;;;4998752;28;20097;-83
2021/01/01 21:25:58;;;;;;;49.15;31.25;;;3.90;94.70;;;;;;4992316;28;20058;-83
2021/01/01 21:29:06;;;;;;;53.97;34.53;;;3.90;94.60;;;;;;4985739;28;20546;-82
2021/01/01 21:32:11;;;;;;;51.42;32.22;;;4.00;94.60;;;;;;4945381;28;20105;-84
2021/01/01 21:34:58;;;;;;;59.88;35.58;;;3.90;94.60;;;;;;4977266;28;20061;-83
2021/01/01 21:37:43;;;;;;;52.33;33.88;;;3.90;94.60;;;;;;4996762;28;20121;-84
2021/01/01 21:40:18;;;;;;;47.05;31.38;;;4.00;94.60;;;;;;4974490;28;20050;-82
2021/01/01 21:43:09;;;;;;;52.13;33.25;;;4.00;94.60;;;;;;5001156;28;20060;-82
2021/01/01 21:46:00;;;;;;;44.70;30.98;;;4.00;94.60;;;;;;4996973;28;20050;-82
2021/01/01 21:48:45;;;;;;;44.25;31.60;;;4.00;94.60;;;;;;5011376;28;20064;-82
2021/01/01 21:51:11;;;;;;;38.33;29.67;;;3.90;94.50;;;;;;5028826;28;20044;-82
2021/01/01 21:53:37;;;;;;;45.22;32.35;;;3.90;94.50;;;;;;5040263;28;20049;-83
2021/01/01 21:56:04;;;;;;;45.75;32.78;;;3.90;94.50;;;;;;5017721;28;20097;-82
2021/01/01 21:58:31;;;;;;;41.38;29.83;;;3.90;94.40;;;;;;5009056;28;20128;-83
2021/01/01 22:01:00;;;;;;;42.60;31.05;;;3.90;94.40;;;;;;5031859;28;22228;-82
2021/01/01 22:03:28;;;;;;;45.55;31.48;;;3.90;94.40;;;;;;5024832;28;20271;-82
2021/01/01 22:05:54;;;;;;;50.13;32.33;;;3.90;94.40;;;;;;5020468;28;20526;-82
2021/01/01 22:08:20;;;;;;;44.45;30.83;;;3.90;94.30;;;;;;5008009;28;20045;-82
2021/01/01 22:10:47;;;;;;;54.33;35.47;;;3.90;94.30;;;;;;5024504;28;20049;-83
2021/01/01 22:13:12;;;;;;;50.63;31.80;;;3.90;94.40;;;;;;5018205;28;20064;-83
2021/01/01 22:15:38;;;;;;;52.60;34.63;;;3.90;94.30;;;;;;5020440;28;20199;-83
2021/01/01 22:18:04;;;;;;;46.20;31.08;;;3.90;94.40;;;;;;5017437;28;20163;-83
2021/01/01 22:20:31;;;;;;;40.60;28.80;;;3.90;94.40;;;;;;5005106;28;20045;-83
2021/01/01 22:23:00;;;;;;;40.53;29.05;;;3.90;94.50;;;;;;5013236;28;20049;-83
2021/01/01 22:25:25;;;;;;;46.58;30.08;;;3.90;94.40;;;;;;5020965;28;20053;-83
2021/01/01 22:27:51;;;;;;;49.53;34.22;;;3.90;94.40;;;;;;5021177;28;20041;-83
2021/01/01 22:30:17;;;;;;;47.40;32.55;;;3.80;94.40;;;;;;5045654;28;20778;-83
2021/01/01 22:32:43;;;;;;;40.55;29.10;;;3.90;94.40;;;;;;5031961;28;20050;-84
2021/01/01 22:35:10;;;;;;;41.95;29.40;;;3.90;94.40;;;;;;5018698;28;20144;-82
2021/01/01 22:37:35;;;;;;;47.80;31.00;;;3.90;94.40;;;;;;4996082;28;20120;-82
2021/01/01 22:40:01;;;;;;;49.63;34.50;;;4.00;94.40;;;;;;5025597;28;20045;-83
2021/01/01 22:42:27;;;;;;;52.13;34.75;;;3.90;94.40;;;;;;5037065;28;20050;-83
2021/01/01 22:44:53;;;;;;;41.88;31.35;;;4.00;94.30;;;;;;5039210;28;20058;-83
2021/01/01 22:47:23;;;;;;;46.53;30.50;;;4.00;94.30;;;;;;5020216;28;20061;-83
2021/01/01 22:49:49;;;;;;;39.75;29.75;;;4.00;94.40;;;;;;5020952;28;20060;-82
2021/01/01 22:52:15;;;;;;;45.95;31.83;;;4.00;94.40;;;;;;5038417;28;20064;-83
2021/01/01 22:54:41;;;;;;;47.33;32.75;;;3.90;94.40;;;;;;5016369;28;20148;-83
2021/01/01 22:57:07;;;;;;;53.15;33.45;;;4.00;94.40;;;;;;5041927;28;20061;-82
2021/01/01 22:59:33;;;;;;;42.72;29.48;;;4.00;94.40;;;;;;5013171;28;20062;-83
2021/01/01 23:02:01;;;;;;;43.33;31.25;;;4.00;94.40;;;;;;5042722;28;20061;-83
2021/01/01 23:04:28;;;;;;;45.05;31.88;;;4.00;94.40;;;;;;5030697;28;20049;-83
2021/01/01 23:06:58;;;;;;;43.85;32.50;;;4.00;94.40;;;;;;5038212;28;20040;-82
2021/01/01 23:09:27;;;;;;;52.63;32.72;;;4.00;94.40;;;;;;5002449;28;20049;-82
2021/01/01 23:11:55;;;;;;;42.78;28.85;;;4.00;94.50;;;;;;5023231;28;20528;-82
2021/01/01 23:14:21;;;;;;;46.53;31.63;;;4.00;94.50;;;;;;5032059;28;20072;-81
2021/01/01 23:16:47;;;;;;;45.63;31.42;;;4.00;94.50;;;;;;5015611;28;20053;-82
2021/01/01 23:19:13;;;;;;;44.28;31.63;;;4.10;94.50;;;;;;5012367;28;20049;-83
2021/01/01 23:21:46;;;;;;;44.72;30.83;;;4.00;94.50;;;;;;5024647;28;20081;-82
2021/01/01 23:24:29;;;;;;;41.33;30.95;;;4.00;94.60;;;;;;5016566;28;20053;-82
2021/01/01 23:27:03;;;;;;;48.78;31.92;;;4.00;94.60;;;;;;5021334;28;20077;-82
2021/01/01 23:29:59;;;;;;;39.70;30.02;;;4.10;94.60;;;;;;5002587;28;20045;-83
2021/01/01 23:32:46;;;;;;;45.20;30.98;;;4.10;94.50;;;;;;5021991;28;20088;-82
2021/01/01 23:35:13;;;;;;;45.35;30.50;;;4.00;94.50;;;;;;5035403;28;20113;-83
2021/01/01 23:37:41;;;;;;;43.85;29.33;;;4.00;94.50;;;;;;5022972;28;20060;-82
2021/01/01 23:40:36;;;;;;;36.75;27.65;;;4.00;94.40;;;;;;5031466;28;20045;-82
2021/01/01 23:43:03;;;;;;;37.47;26.92;;;4.00;94.50;;;;;;5051426;28;20061;-82
2021/01/01 23:45:35;;;;;;;45.00;29.60;;;4.00;94.60;;;;;;5005398;28;20051;-81
2021/01/01 23:48:06;;;;;;;38.45;26.42;;;4.00;94.50;;;;;;5023940;28;20434;-82
2021/01/01 23:50:31;;;;;;;37.83;26.02;;;4.10;94.60;;;;;;5032460;28;20077;-82
2021/01/01 23:52:58;;;;;;;33.15;25.45;;;4.00;94.50;;;;;;5022610;28;20065;-82
2021/01/01 23:55:24;;;;;;;46.28;29.38;;;4.00;94.50;;;;;;5013863;28;20052;-82
2021/01/01 23:57:50;;;;;;;40.67;27.55;;;4.00;94.50;;;;;;4989213;28;20053;-82
